createdAt,value
2023-04-21T00:00:01.004Z,6.63
2023-04-21T00:02:28.918Z,6.50
2023-04-21T00:04:56.585Z,7.20
2023-04-21T00:07:24.740Z,6.40
2023-04-21T00:09:52.087Z,6.45
2023-04-21T00:12:19.877Z,7.55
2023-04-21T00:14:47.202Z,6.97
2023-04-21T00:17:14.634Z,7.55
2023-04-21T00:19:42.272Z,7.22
2023-04-21T00:22:14.785Z,7.45
2023-04-21T00:24:42.066Z,6.45
2023-04-21T00:27:09.718Z,6.97
2023-04-21T00:29:37.048Z,7.05
2023-04-21T00:32:08.370Z,7.22
2023-04-21T00:34:36.299Z,7.43
2023-04-21T00:37:03.637Z,7.40
2023-04-21T00:39:32.851Z,7.18
2023-04-21T00:42:01.315Z,6.97
2023-04-21T00:44:28.634Z,6.97
2023-04-21T00:46:55.957Z,6.47
2023-04-21T00:49:24.667Z,6.80
2023-04-21T00:51:52.530Z,6.95
2023-04-21T00:54:21.236Z,7.53
2023-04-21T00:56:48.725Z,7.43
2023-04-21T00:59:16.219Z,8.55
2023-04-21T01:01:44.443Z,7.28
2023-04-21T01:04:12.023Z,6.80
2023-04-21T01:06:40.666Z,6.57
2023-04-21T01:09:08.033Z,7.53
2023-04-21T01:11:37.148Z,5.50
2023-04-21T01:14:05.528Z,6.57
2023-04-21T01:16:33.721Z,7.88
2023-04-21T01:19:01.785Z,8.40
2023-04-21T01:21:32.069Z,8.02
2023-04-21T01:24:01.871Z,8.10
2023-04-21T01:26:29.175Z,7.97
2023-04-21T01:28:57.499Z,7.90
2023-04-21T01:31:25.239Z,8.65
2023-04-21T01:33:52.672Z,9.20
2023-04-21T01:36:20.114Z,8.27
2023-04-21T01:38:47.970Z,8.57
2023-04-21T01:41:15.835Z,8.65
2023-04-21T01:43:43.236Z,10.00
2023-04-21T01:46:10.750Z,9.13
2023-04-21T01:48:38.560Z,9.45
2023-04-21T01:51:06.891Z,9.02
2023-04-21T01:53:34.183Z,8.88
2023-04-21T01:56:02.612Z,9.68
2023-04-21T01:58:31.613Z,10.35
2023-04-21T02:00:59.023Z,9.55
2023-04-21T02:03:27.149Z,9.43
2023-04-21T02:05:54.845Z,10.27
2023-04-21T02:08:22.210Z,9.75
2023-04-21T02:10:49.642Z,10.30
2023-04-21T02:13:16.973Z,10.10
2023-04-21T02:15:44.444Z,10.57
2023-04-21T02:18:13.407Z,9.82
2023-04-21T02:20:40.917Z,11.35
2023-04-21T02:23:08.390Z,9.55
2023-04-21T02:25:35.889Z,11.35
2023-04-21T02:28:03.248Z,10.52
2023-04-21T02:30:30.964Z,10.98
2023-04-21T02:32:58.480Z,11.18
2023-04-21T02:35:25.952Z,10.75
2023-04-21T02:37:53.384Z,10.63
2023-04-21T02:40:23.161Z,10.55
2023-04-21T02:42:52.709Z,10.13
2023-04-21T02:45:20.095Z,11.07
2023-04-21T02:47:47.485Z,10.65
2023-04-21T02:50:14.948Z,10.35
2023-04-21T02:52:42.528Z,10.48
2023-04-21T02:55:10.039Z,10.30
2023-04-21T02:57:37.419Z,11.30
2023-04-21T03:00:05.908Z,10.43
2023-04-21T03:02:33.604Z,9.35
2023-04-21T03:05:01.311Z,10.18
2023-04-21T03:07:28.743Z,10.93
2023-04-21T03:09:56.086Z,10.80
2023-04-21T03:12:23.509Z,10.25
2023-04-21T03:14:51.021Z,11.43
2023-04-21T03:17:18.458Z,9.90
2023-04-21T03:19:45.889Z,11.30
2023-04-21T03:22:13.222Z,10.43
2023-04-21T03:24:40.840Z,11.27
2023-04-21T03:27:11.029Z,11.15
2023-04-21T03:29:38.654Z,10.48
2023-04-21T03:32:06.532Z,10.80
2023-04-21T03:34:34.022Z,12.32
2023-04-21T03:37:04.885Z,11.40
2023-04-21T03:39:32.502Z,11.15
2023-04-21T03:42:01.425Z,12.30
2023-04-21T03:44:30.120Z,11.68
2023-04-21T03:46:57.639Z,11.52
2023-04-21T03:49:25.052Z,10.68
2023-04-21T03:51:52.442Z,11.02
2023-04-21T03:54:19.858Z,11.05
2023-04-21T03:56:47.270Z,11.60
2023-04-21T03:59:14.606Z,11.43
2023-04-21T04:01:42.587Z,11.07
2023-04-21T04:04:10.164Z,11.07
2023-04-21T04:06:37.810Z,11.40
2023-04-21T04:09:05.284Z,11.15
2023-04-21T04:11:32.976Z,11.82
2023-04-21T04:14:00.407Z,11.27
2023-04-21T04:16:29.095Z,11.57
2023-04-21T04:18:56.787Z,10.05
2023-04-21T04:21:24.307Z,11.20
2023-04-21T04:23:52.443Z,10.63
2023-04-21T04:26:20.025Z,11.35
2023-04-21T04:28:47.927Z,11.00
2023-04-21T04:31:17.227Z,11.55
2023-04-21T04:33:44.765Z,10.15
2023-04-21T04:36:13.013Z,11.32
2023-04-21T04:38:41.729Z,9.63
2023-04-21T04:41:09.112Z,11.45
2023-04-21T04:43:36.976Z,10.02
2023-04-21T04:46:04.666Z,11.13
2023-04-21T04:48:32.207Z,11.05
2023-04-21T04:50:59.549Z,10.95
2023-04-21T04:53:28.986Z,11.57
2023-04-21T04:55:58.603Z,9.52
2023-04-21T04:58:26.076Z,12.13
2023-04-21T05:00:53.581Z,12.25
2023-04-21T05:03:21.097Z,10.80
2023-04-21T05:05:48.640Z,12.20
2023-04-21T05:08:18.026Z,12.13
2023-04-21T05:10:45.657Z,11.48
2023-04-21T05:13:12.938Z,12.40
2023-04-21T05:15:40.284Z,13.05
2023-04-21T05:18:07.759Z,12.00
2023-04-21T05:20:35.215Z,9.93
2023-04-21T05:23:02.576Z,11.45
2023-04-21T05:25:30.116Z,12.68
2023-04-21T05:27:57.449Z,12.40
2023-04-21T05:30:24.735Z,12.80
2023-04-21T05:32:52.096Z,12.75
2023-04-21T05:35:19.665Z,12.63
2023-04-21T05:37:47.099Z,12.65
2023-04-21T05:40:14.577Z,13.50
2023-04-21T05:42:41.909Z,13.88
2023-04-21T05:45:09.397Z,12.70
2023-04-21T05:47:38.337Z,13.30
2023-04-21T05:50:06.879Z,12.90
2023-04-21T05:52:35.024Z,12.80
2023-04-21T05:55:02.612Z,13.23
2023-04-21T05:57:29.914Z,13.60
2023-04-21T05:59:57.224Z,13.48
2023-04-21T06:02:24.729Z,13.60
2023-04-21T06:04:52.266Z,13.65
2023-04-21T06:07:19.824Z,13.50
2023-04-21T06:09:51.488Z,12.90
2023-04-21T06:12:18.839Z,12.88
2023-04-21T06:14:46.302Z,13.10
2023-04-21T06:17:17.168Z,14.13
2023-04-21T06:19:44.566Z,13.70
2023-04-21T06:22:11.937Z,12.98
2023-04-21T06:24:40.792Z,12.48
2023-04-21T06:27:12.825Z,12.82
2023-04-21T06:29:42.726Z,13.88
2023-04-21T06:32:11.296Z,15.30
2023-04-21T06:34:39.264Z,14.98
2023-04-21T06:37:06.631Z,13.75
2023-04-21T06:39:33.998Z,13.55
2023-04-21T06:42:02.419Z,14.48
2023-04-21T06:44:31.854Z,14.13
2023-04-21T06:46:59.520Z,13.45
2023-04-21T06:49:26.985Z,15.32
2023-04-21T06:51:54.396Z,15.32
2023-04-21T06:54:21.733Z,14.30
2023-04-21T06:56:51.386Z,13.52
2023-04-21T06:59:18.941Z,15.20
2023-04-21T07:01:48.997Z,14.05
2023-04-21T07:04:16.561Z,14.15
2023-04-21T07:06:43.977Z,14.73
2023-04-21T07:09:11.437Z,13.05
2023-04-21T07:11:38.864Z,15.50
2023-04-21T07:14:06.788Z,15.02
2023-04-21T07:16:34.120Z,14.80
2023-04-21T07:19:02.731Z,15.15
2023-04-21T07:21:32.009Z,15.10
2023-04-21T07:23:59.521Z,15.23
2023-04-21T07:26:26.898Z,15.27
2023-04-21T07:28:55.553Z,15.98
2023-04-21T07:31:22.999Z,14.93
2023-04-21T07:33:50.872Z,15.23
2023-04-21T07:36:18.592Z,15.20
2023-04-21T07:38:46.036Z,14.30
2023-04-21T07:41:13.678Z,15.60
2023-04-21T07:43:41.210Z,16.08
2023-04-21T07:46:08.643Z,16.08
2023-04-21T07:48:35.982Z,16.40
2023-04-21T07:51:03.636Z,16.42
2023-04-21T07:53:31.305Z,16.20
2023-04-21T07:55:58.890Z,16.60
2023-04-21T07:58:26.304Z,15.23
2023-04-21T08:00:53.714Z,16.27
2023-04-21T08:03:23.804Z,15.90
2023-04-21T08:05:52.051Z,15.85
2023-04-21T08:08:21.561Z,15.48
2023-04-21T08:10:49.101Z,15.25
2023-04-21T08:13:16.428Z,15.77
2023-04-21T08:15:44.053Z,15.00
2023-04-21T08:18:11.536Z,15.68
2023-04-21T08:20:38.986Z,16.33
2023-04-21T08:23:06.569Z,14.90
2023-04-21T08:25:34.031Z,15.95
2023-04-21T08:28:01.639Z,16.50
2023-04-21T08:30:29.260Z,15.68
2023-04-21T08:32:56.685Z,16.23
2023-04-21T08:35:24.702Z,15.60
2023-04-21T08:37:53.385Z,16.45
2023-04-21T08:40:20.877Z,14.32
2023-04-21T08:42:48.844Z,15.73
2023-04-21T08:45:16.689Z,15.57
2023-04-21T08:47:44.505Z,14.90
2023-04-21T08:50:14.657Z,14.82
2023-04-21T08:52:42.061Z,14.50
2023-04-21T08:55:11.281Z,15.57
2023-04-21T08:57:38.859Z,14.40
2023-04-21T09:00:08.306Z,15.38
2023-04-21T09:03:02.183Z,14.77
2023-04-21T09:05:32.222Z,13.30
2023-04-21T09:08:13.550Z,13.98
2023-04-21T09:10:49.467Z,14.98
2023-04-21T09:13:20.792Z,14.23
2023-04-21T09:15:50.810Z,13.43
2023-04-21T09:18:26.428Z,15.02
2023-04-21T09:21:07.557Z,14.63
2023-04-21T09:23:52.091Z,14.32
2023-04-21T09:26:22.753Z,12.93
2023-04-21T09:28:52.546Z,13.35
2023-04-21T09:31:24.636Z,12.75
2023-04-21T09:33:58.724Z,13.30
2023-04-21T09:36:31.957Z,12.18
2023-04-21T09:39:29.084Z,12.73
2023-04-21T09:41:51.338Z,12.70
2023-04-21T09:44:19.009Z,12.82
2023-04-21T09:46:52.117Z,12.13
2023-04-21T09:49:23.334Z,12.38
2023-04-21T09:52:16.870Z,11.68
2023-04-21T09:54:45.390Z,10.52
2023-04-21T09:59:46.850Z,10.13
2023-04-21T10:02:14.671Z,11.95
2023-04-21T10:04:44.069Z,12.45
2023-04-21T10:07:12.574Z,10.52
2023-04-21T10:09:47.846Z,11.18
2023-04-21T10:12:15.813Z,11.75
2023-04-21T10:14:43.162Z,10.98
2023-04-21T10:17:11.267Z,10.30
2023-04-21T10:19:49.120Z,10.93
2023-04-21T10:22:28.609Z,11.35
2023-04-21T10:24:57.896Z,11.35
2023-04-21T10:27:39.297Z,10.48
2023-04-21T10:30:23.914Z,10.55
2023-04-21T10:33:03.817Z,10.25
2023-04-21T10:36:03.922Z,12.10
2023-04-21T10:38:35.882Z,10.70
2023-04-21T10:41:29.255Z,10.77
2023-04-21T10:44:12.144Z,11.25
2023-04-21T10:46:47.423Z,12.15
2023-04-21T10:49:26.204Z,11.13
2023-04-21T10:51:59.755Z,11.57
2023-04-21T10:54:29.581Z,10.20
2023-04-21T10:56:59.726Z,10.88
2023-04-21T10:59:27.386Z,10.57
2023-04-21T11:01:55.087Z,10.25
2023-04-21T11:04:23.579Z,10.85
2023-04-21T11:07:13.345Z,9.98
2023-04-21T11:09:42.266Z,9.98
2023-04-21T11:12:11.823Z,9.93
2023-04-21T11:14:41.237Z,9.88
2023-04-21T11:17:13.554Z,9.73
2023-04-21T11:19:41.360Z,9.82
2023-04-21T11:22:08.829Z,11.52
2023-04-21T11:24:36.449Z,11.20
2023-04-21T11:27:08.060Z,11.38
2023-04-21T11:29:35.470Z,10.07
2023-04-21T11:32:09.324Z,12.02
2023-04-21T11:34:40.487Z,12.52
2023-04-21T11:37:15.140Z,12.63
2023-04-21T11:39:43.799Z,11.18
2023-04-21T11:42:11.989Z,11.73
2023-04-21T11:44:41.815Z,11.90
2023-04-21T11:47:20.222Z,12.10
2023-04-21T11:49:56.122Z,11.82
2023-04-21T11:52:34.028Z,12.95
2023-04-21T11:55:15.584Z,12.25
2023-04-21T11:57:43.023Z,13.25
2023-04-21T12:00:12.152Z,12.13
2023-04-21T12:02:40.317Z,11.70
2023-04-21T12:05:10.317Z,9.60
2023-04-21T12:07:41.880Z,8.57
2023-04-21T12:10:32.489Z,9.57
2023-04-21T12:12:59.865Z,9.23
2023-04-21T12:15:30.434Z,9.55
2023-04-21T12:17:57.906Z,9.10
2023-04-21T12:20:28.573Z,9.23
2023-04-21T12:22:56.660Z,9.45
2023-04-21T12:25:25.102Z,10.18
2023-04-21T12:27:54.507Z,11.27
2023-04-21T12:30:24.184Z,11.82
2023-04-21T12:32:52.312Z,12.27
2023-04-21T12:35:19.828Z,11.98
2023-04-21T12:37:47.292Z,12.02
2023-04-21T12:40:14.659Z,11.18
2023-04-21T12:42:42.012Z,10.55
2023-04-21T12:45:09.614Z,10.52
2023-04-21T12:47:37.564Z,10.45
2023-04-21T12:50:05.613Z,11.32
2023-04-21T12:52:33.024Z,11.45
2023-04-21T12:55:00.355Z,10.80
2023-04-21T12:57:29.602Z,11.20
2023-04-21T12:59:57.014Z,10.85
2023-04-21T13:02:24.525Z,10.50
2023-04-21T13:04:52.029Z,10.02
2023-04-21T13:07:22.129Z,10.55
2023-04-21T13:09:49.553Z,10.65
2023-04-21T13:12:17.279Z,10.65
2023-04-21T13:14:44.680Z,9.98
2023-04-21T13:17:12.573Z,10.20
2023-04-21T13:19:40.016Z,9.88
2023-04-21T13:22:07.476Z,9.68
2023-04-21T13:24:34.858Z,9.27
2023-04-21T13:27:02.485Z,9.80
2023-04-21T13:29:30.235Z,11.27
2023-04-21T13:31:57.910Z,10.43
2023-04-21T13:34:25.338Z,10.77
2023-04-21T13:36:53.342Z,10.98
2023-04-21T13:39:21.256Z,10.88
2023-04-21T13:41:48.873Z,11.48
2023-04-21T13:44:16.321Z,11.02
2023-04-21T13:46:43.809Z,11.13
2023-04-21T13:49:11.295Z,11.82
2023-04-21T13:51:38.688Z,11.32
2023-04-21T13:54:06.738Z,11.63
2023-04-21T13:56:34.101Z,11.98
2023-04-21T13:59:01.429Z,12.30
2023-04-21T14:01:28.859Z,11.85
2023-04-21T14:03:57.185Z,12.27
2023-04-21T14:06:25.549Z,11.25
2023-04-21T14:08:53.417Z,11.73
2023-04-21T14:11:21.383Z,12.02
2023-04-21T14:14:05.352Z,11.40
2023-04-21T14:16:36.197Z,9.90
2023-04-21T14:19:03.921Z,12.48
2023-04-21T14:21:32.370Z,11.98
2023-04-21T14:23:59.692Z,12.25
2023-04-21T14:26:27.286Z,11.43
2023-04-21T14:28:54.655Z,11.07
2023-04-21T14:31:22.414Z,11.75
2023-04-21T14:33:50.011Z,11.88
2023-04-21T14:36:17.497Z,11.02
2023-04-21T14:38:44.909Z,11.40
2023-04-21T14:41:12.428Z,11.05
2023-04-21T14:43:39.837Z,11.52
2023-04-21T14:46:07.506Z,10.77
2023-04-21T14:48:35.138Z,11.07
2023-04-21T14:51:02.541Z,11.05
2023-04-21T14:53:29.916Z,11.07
2023-04-21T14:55:57.289Z,11.40
2023-04-21T14:58:24.921Z,10.45
2023-04-21T15:00:52.493Z,10.90
2023-04-21T15:03:19.950Z,11.57
2023-04-21T15:05:47.459Z,11.27
2023-04-21T15:08:18.062Z,11.82
2023-04-21T15:10:45.560Z,11.98
2023-04-21T15:13:13.837Z,12.52
2023-04-21T15:15:41.480Z,12.52
2023-04-21T15:18:08.929Z,11.35
2023-04-21T15:20:44.566Z,12.48
2023-04-21T15:23:14.118Z,12.88
2023-04-21T15:25:42.034Z,11.40
2023-04-21T15:28:09.786Z,12.02
2023-04-21T15:30:37.360Z,12.38
2023-04-21T15:33:04.912Z,10.98
2023-04-21T15:35:32.261Z,11.70
2023-04-21T15:37:59.651Z,10.55
2023-04-21T15:40:27.124Z,11.60
2023-04-21T15:42:54.690Z,11.40
2023-04-21T15:45:22.051Z,10.65
2023-04-21T15:47:49.376Z,11.23
2023-04-21T15:50:16.917Z,10.70
2023-04-21T15:52:44.423Z,10.60
2023-04-21T15:55:12.309Z,9.80
2023-04-21T15:57:39.823Z,10.52
2023-04-21T16:00:08.902Z,9.93
2023-04-21T16:02:36.921Z,9.95
2023-04-21T16:05:04.777Z,10.43
2023-04-21T16:07:32.292Z,10.23
2023-04-21T16:09:59.659Z,10.57
2023-04-21T16:12:27.300Z,11.07
2023-04-21T16:14:59.562Z,10.70
2023-04-21T16:17:36.760Z,10.50
2023-04-21T16:20:05.610Z,11.18
2023-04-21T16:22:33.111Z,10.38
2023-04-21T16:25:01.790Z,10.88
2023-04-21T16:27:29.226Z,10.55
2023-04-21T16:29:56.621Z,10.10
2023-04-21T16:32:24.171Z,10.23
2023-04-21T16:34:51.661Z,10.25
2023-04-21T16:37:19.112Z,10.75
2023-04-21T16:39:46.474Z,10.60
2023-04-21T16:42:14.108Z,10.68
2023-04-21T16:44:41.694Z,11.20
2023-04-21T16:47:09.260Z,10.88
2023-04-21T16:49:36.661Z,11.00
2023-04-21T16:52:04.039Z,11.35
2023-04-21T16:54:31.470Z,10.88
2023-04-21T16:56:58.823Z,11.63
2023-04-21T16:59:26.178Z,10.35
2023-04-21T17:01:53.497Z,11.75
2023-04-21T17:04:21.066Z,11.13
2023-04-21T17:06:48.551Z,11.02
2023-04-21T17:09:16.086Z,11.25
2023-04-21T17:11:43.967Z,11.35
2023-04-21T17:14:12.633Z,9.98
2023-04-21T17:16:40.140Z,10.30
2023-04-21T17:19:07.825Z,12.05
2023-04-21T17:21:35.853Z,11.15
2023-04-21T17:24:03.607Z,10.85
2023-04-21T17:26:31.159Z,11.52
2023-04-21T17:28:59.271Z,10.73
2023-04-21T17:31:29.449Z,11.48
2023-04-21T17:33:57.324Z,11.38
2023-04-21T17:36:27.471Z,11.23
2023-04-21T17:38:55.590Z,11.93
2023-04-21T17:41:23.583Z,10.40
2023-04-21T17:43:51.040Z,10.98
2023-04-21T17:46:18.723Z,10.70
2023-04-21T17:48:46.095Z,10.52
2023-04-21T17:51:14.765Z,10.32
2023-04-21T17:53:42.438Z,10.88
2023-04-21T17:56:10.967Z,11.13
2023-04-21T17:58:40.435Z,10.98
2023-04-21T18:01:08.030Z,10.90
2023-04-21T18:03:41.320Z,10.20
2023-04-21T18:06:13.541Z,10.05
2023-04-21T18:08:41.189Z,10.77
2023-04-21T18:11:09.095Z,10.82
2023-04-21T18:13:36.444Z,10.32
2023-04-21T18:16:03.851Z,6.35
2023-04-21T18:18:31.285Z,3.45
2023-04-21T18:20:59.681Z,2.20
2023-04-21T18:23:27.137Z,1.88
2023-04-21T18:25:54.645Z,1.55
2023-04-21T18:28:22.100Z,1.42
2023-04-21T18:30:49.938Z,1.40
2023-04-21T18:33:18.711Z,1.50
2023-04-21T18:35:46.126Z,1.30
2023-04-21T18:38:13.635Z,1.60
2023-04-21T18:40:41.425Z,1.50
2023-04-21T18:43:09.891Z,1.23
2023-04-21T18:45:38.647Z,1.20
2023-04-21T18:48:06.232Z,1.27
2023-04-21T18:50:35.940Z,1.02
2023-04-21T18:53:07.347Z,1.20
2023-04-21T18:55:36.097Z,1.20
2023-04-21T18:58:03.881Z,0.98
2023-04-21T19:00:32.308Z,1.20
2023-04-21T19:03:01.454Z,1.30
2023-04-21T19:05:32.193Z,1.30
2023-04-21T19:08:01.076Z,1.60
2023-04-21T19:10:28.887Z,1.50
2023-04-21T19:12:57.483Z,1.48
2023-04-21T19:15:24.952Z,1.80
2023-04-21T19:17:54.927Z,1.77
2023-04-21T19:20:22.333Z,1.70
2023-04-21T19:22:52.671Z,1.70
2023-04-21T19:25:21.989Z,1.80
2023-04-21T19:27:49.510Z,1.80
2023-04-21T19:30:21.704Z,1.65
2023-04-21T19:32:52.328Z,1.58
2023-04-21T19:35:21.835Z,1.70
2023-04-21T19:37:49.968Z,1.88
2023-04-21T19:40:19.526Z,1.98
2023-04-21T19:42:46.869Z,2.20
2023-04-21T19:45:14.236Z,1.90
2023-04-21T19:47:41.877Z,1.73
2023-04-21T19:50:09.896Z,1.88
2023-04-21T19:52:37.281Z,1.80
2023-04-21T19:55:05.026Z,2.10
2023-04-21T19:57:32.661Z,2.22
2023-04-21T20:00:01.253Z,2.10
2023-04-21T20:02:28.809Z,2.38
2023-04-21T20:05:03.929Z,2.15
2023-04-21T20:07:34.042Z,2.55
2023-04-21T20:10:02.727Z,2.47
2023-04-21T20:12:31.601Z,2.50
2023-04-21T20:14:58.966Z,2.53
2023-04-21T20:17:27.855Z,2.50
2023-04-21T20:19:55.903Z,2.38
2023-04-21T20:22:29.536Z,2.35
2023-04-21T20:24:58.076Z,2.05
2023-04-21T20:27:27.027Z,1.98
2023-04-21T20:29:54.486Z,2.50
2023-04-21T20:32:22.119Z,2.65
2023-04-21T20:34:53.354Z,2.70
2023-04-21T20:37:29.804Z,2.55
2023-04-21T20:40:00.757Z,2.67
2023-04-21T20:42:29.162Z,2.63
2023-04-21T20:44:56.790Z,2.35
2023-04-21T20:47:24.787Z,3.00
2023-04-21T20:49:52.405Z,2.58
2023-04-21T20:52:19.831Z,2.58
2023-04-21T20:54:47.286Z,2.88
2023-04-21T20:57:14.775Z,3.20
2023-04-21T20:59:42.201Z,3.28
2023-04-21T21:02:09.933Z,2.70
2023-04-21T21:04:37.558Z,2.83
2023-04-21T21:07:05.307Z,2.80
2023-04-21T21:09:32.654Z,2.60
2023-04-21T21:12:00.726Z,2.90
2023-04-21T21:14:28.326Z,2.83
2023-04-21T21:16:56.525Z,2.50
2023-04-21T21:19:24.702Z,2.67
2023-04-21T21:21:52.070Z,2.70
2023-04-21T21:24:19.451Z,2.53
2023-04-21T21:26:46.814Z,2.60
2023-04-21T21:29:14.204Z,2.65
2023-04-21T21:31:41.610Z,2.65
2023-04-21T21:34:09.018Z,2.60
2023-04-21T21:36:36.521Z,3.08
2023-04-21T21:39:04.127Z,3.10
2023-04-21T21:41:31.518Z,3.20
2023-04-21T21:43:59.020Z,3.33
2023-04-21T21:46:26.386Z,3.70
2023-04-21T21:48:53.821Z,3.58
2023-04-21T21:51:21.183Z,4.57
2023-04-21T21:53:48.682Z,4.68
2023-04-21T21:56:16.142Z,6.20
2023-04-21T21:58:43.608Z,6.50
2023-04-21T22:01:11.570Z,6.57
2023-04-21T22:03:39.176Z,7.07
2023-04-21T22:06:07.006Z,7.05
2023-04-21T22:08:34.286Z,7.57
2023-04-21T22:11:03.624Z,6.90
2023-04-21T22:13:30.935Z,7.00
2023-04-21T22:15:58.371Z,7.03
2023-04-21T22:18:26.790Z,7.03
2023-04-21T22:20:54.122Z,6.47
2023-04-21T22:23:21.504Z,6.65
2023-04-21T22:25:48.844Z,7.05
2023-04-21T22:28:16.308Z,7.38
2023-04-21T22:30:43.803Z,7.75
2023-04-21T22:33:11.390Z,6.55
2023-04-21T22:35:38.812Z,7.70
2023-04-21T22:38:06.177Z,6.75
2023-04-21T22:40:33.609Z,7.40
2023-04-21T22:43:01.106Z,7.20
2023-04-21T22:45:28.562Z,7.20
2023-04-21T22:47:56.741Z,7.15
2023-04-21T22:50:24.282Z,7.05
2023-04-21T22:52:51.833Z,6.97
2023-04-21T22:55:19.213Z,7.28
2023-04-21T22:57:46.566Z,7.78
2023-04-21T23:00:14.857Z,7.25
2023-04-21T23:02:42.405Z,7.78
2023-04-21T23:05:10.104Z,7.40
2023-04-21T23:07:37.602Z,7.80
2023-04-21T23:10:05.696Z,7.57
2023-04-21T23:12:33.443Z,7.72
2023-04-21T23:15:00.939Z,8.15
2023-04-21T23:17:28.281Z,8.18
2023-04-21T23:19:56.356Z,8.27
2023-04-21T23:22:26.066Z,8.85
2023-04-21T23:24:53.819Z,8.73
2023-04-21T23:27:21.326Z,8.93
2023-04-21T23:29:48.664Z,8.50
2023-04-21T23:32:16.372Z,9.45
2023-04-21T23:34:43.785Z,9.18
2023-04-21T23:37:11.576Z,9.35
2023-04-21T23:39:39.109Z,8.85
2023-04-21T23:42:06.713Z,9.32
2023-04-21T23:44:34.108Z,8.13
2023-04-21T23:47:01.514Z,8.75
2023-04-21T23:49:28.879Z,8.65
2023-04-21T23:51:56.212Z,9.07
2023-04-21T23:54:23.819Z,9.07
2023-04-21T23:56:51.172Z,8.05
2023-04-21T23:59:18.652Z,9.18
